Terminal Aerodrome Forecast
Issued by NWS

Home | Current Version | Previous Version | Text Only | Print | Product List | Glossary On
Versions: 1 2 3 4 5 6 7 8 9 10 11 12
000
FTUS41 KBTV 271736 AAA
TAFPBG
TAF AMD
KPBG 271736Z 2718/2818 15010KT P6SM FEW250
     FM280000 VRB03KT P6SM SCT150
     FM280800 VRB03KT P6SM SCT070 BKN120
     FM281200 15006KT P6SM BKN070=

USA.gov is the U.S. government's official web portal to all federal, state and local government web resources and services.